Time;durP1;ratioP1;P1;durP2;ratioP2;P2;SDS_P1;SDS_P2;PMS_P1;PMS_P2;Temp;Humidity;BMP_temperature;BMP_pressure;BME280_temperature;BME280_humidity;BME280_pressure;Samples;Min_cycle;Max_cycle;Signal;HPM_P1;HPM_P2
2022/11/22 00:00:53;;;;;;;49.28;29.45;;;;;;;-0.49;100.00;98534.19;5051258;28;20116;-87
2022/11/22 00:03:19;;;;;;;51.58;29.48;;;;;;;-0.44;100.00;98540.88;5063865;28;20029;-86
2022/11/22 00:05:44;;;;;;;60.28;36.47;;;;;;;-0.38;100.00;98550.16;5059221;28;20024;-87
2022/11/22 00:08:10;;;;;;;53.13;30.48;;;;;;;-0.42;100.00;98528.94;5092870;28;20462;-87
2022/11/22 00:10:35;;;;;;;55.92;32.55;;;;;;;-0.48;100.00;98511.13;5092724;28;20016;-87
2022/11/22 00:13:01;;;;;;;59.08;37.58;;;;;;;-0.38;100.00;98527.13;5093001;28;20102;-87
2022/11/22 00:15:27;;;;;;;54.45;33.33;;;;;;;-0.42;100.00;98518.69;5093137;28;20035;-86
2022/11/22 00:17:52;;;;;;;49.63;30.42;;;;;;;-0.40;100.00;98524.59;5093963;28;20015;-86
2022/11/22 00:20:18;;;;;;;55.25;33.70;;;;;;;-0.40;100.00;98522.03;5092842;28;20367;-87
2022/11/22 00:22:43;;;;;;;49.63;30.70;;;;;;;-0.42;100.00;98507.59;5092678;28;20067;-87
2022/11/22 00:25:09;;;;;;;55.15;34.75;;;;;;;-0.34;100.00;98524.50;5094330;28;20569;-87
2022/11/22 00:27:34;;;;;;;51.17;30.23;;;;;;;-0.35;100.00;98516.84;5092961;28;20375;-87
2022/11/22 00:30:00;;;;;;;55.25;33.10;;;;;;;-0.39;100.00;98507.53;5093820;28;20107;-86
2022/11/22 00:32:25;;;;;;;53.75;31.52;;;;;;;-0.33;100.00;98530.44;5094094;28;20448;-86
2022/11/22 00:34:50;;;;;;;51.75;30.20;;;;;;;-0.34;100.00;98521.06;5087816;28;20048;-86
2022/11/22 00:37:16;;;;;;;61.05;35.10;;;;;;;-0.36;100.00;98513.44;5073643;28;20032;-87
2022/11/22 00:39:41;;;;;;;56.75;32.70;;;;;;;-0.39;100.00;98510.09;5073439;28;20025;-86
2022/11/22 00:42:06;;;;;;;59.00;31.27;;;;;;;-0.37;100.00;98508.38;5055419;28;20452;-87
2022/11/22 00:44:32;;;;;;;56.80;32.55;;;;;;;-0.43;100.00;98491.41;5073519;28;20046;-87
2022/11/22 00:46:57;;;;;;;57.97;34.08;;;;;;;-0.37;100.00;98496.41;5055317;28;20136;-87
2022/11/22 00:49:23;;;;;;;53.42;31.70;;;;;;;-0.51;100.00;98473.69;5055493;28;20444;-86
2022/11/22 00:51:48;;;;;;;58.33;33.42;;;;;;;-0.43;100.00;98491.41;5055076;28;20028;-87
2022/11/22 00:54:13;;;;;;;60.30;36.58;;;;;;;-0.44;100.00;98491.44;5055257;28;20028;-86
2022/11/22 00:56:39;;;;;;;61.30;33.28;;;;;;;-0.33;100.00;98498.03;5055526;28;20032;-87
2022/11/22 00:59:04;;;;;;;57.70;32.60;;;;;;;-0.37;100.00;98486.19;5054949;28;20111;-86
2022/11/22 01:01:29;;;;;;;54.55;34.15;;;;;;;-0.44;100.00;98476.09;5055285;28;20020;-87
2022/11/22 01:03:54;;;;;;;57.05;31.85;;;;;;;-0.36;100.00;98481.91;5054959;28;20056;-86
2022/11/22 01:06:20;;;;;;;58.22;35.08;;;;;;;-0.31;100.00;98487.75;5055110;28;20020;-86
2022/11/22 01:08:45;;;;;;;55.45;31.58;;;;;;;-0.40;100.00;98470.88;5054931;28;20060;-86
2022/11/22 01:11:13;;;;;;;50.40;30.40;;;;;;;-0.44;100.00;98468.44;5055022;28;20039;-86
2022/11/22 01:13:38;;;;;;;58.13;34.25;;;;;;;-0.29;100.00;98491.13;5054380;28;20020;-86
2022/11/22 01:16:07;;;;;;;55.33;32.80;;;;;;;-0.29;100.00;98479.19;5054844;28;20032;-86
2022/11/22 01:18:33;;;;;;;55.72;33.53;;;;;;;-0.30;100.00;98485.16;5054690;28;20012;-86
2022/11/22 01:20:58;;;;;;;58.55;33.95;;;;;;;-0.28;100.00;98495.38;5072544;28;20020;-86
2022/11/22 01:23:24;;;;;;;52.00;32.30;;;;;;;-0.29;100.00;98496.25;5072678;28;20031;-86
2022/11/22 01:25:49;;;;;;;53.45;31.40;;;;;;;-0.30;100.00;98484.31;5054440;28;20025;-87
2022/11/22 01:28:15;;;;;;;62.67;36.08;;;;;;;-0.33;100.00;98481.84;5054637;28;20038;-87
2022/11/22 01:30:41;;;;;;;62.97;34.53;;;;;;;-0.34;100.00;98491.25;5054645;28;20115;-87
2022/11/22 01:33:07;;;;;;;51.28;30.83;;;;;;;-0.36;100.00;98485.28;5072356;28;20107;-87
2022/11/22 01:35:32;;;;;;;58.97;33.78;;;;;;;-0.37;100.00;98475.94;5072461;28;20094;-87
2022/11/22 01:37:58;;;;;;;63.33;38.45;;;;;;;-0.39;100.00;98469.16;5054091;28;20016;-86
2022/11/22 01:40:23;;;;;;;68.65;38.40;;;;;;;-0.43;100.00;98465.81;5072442;28;20028;-87
2022/11/22 01:42:55;;;;;;;56.67;35.47;;;;;;;-0.38;100.00;98479.38;5054335;28;20028;-87
2022/11/22 01:45:29;;;;;;;55.55;32.50;;;;;;;-0.37;100.00;98477.66;5072484;28;20103;-87
2022/11/22 01:48:03;;;;;;;60.60;34.53;;;;;;;-0.45;100.00;98459.91;5054155;28;20035;-87
2022/11/22 01:50:34;;;;;;;53.38;31.63;;;;;;;-0.47;100.00;98459.09;5072149;28;20363;-87
2022/11/22 01:53:05;;;;;;;53.45;32.65;;;;;;;-0.42;100.00;98474.34;5054217;28;20032;-86
2022/11/22 01:55:32;;;;;;;56.17;34.38;;;;;;;-0.47;100.00;98458.25;5054376;28;20021;-86
2022/11/22 01:57:58;;;;;;;75.82;41.92;;;;;;;-0.39;100.00;98479.41;5072144;28;20016;-87
2022/11/22 02:00:23;;;;;;;50.20;31.17;;;;;;;-0.39;100.00;98482.78;5054228;28;20058;-87
2022/11/22 02:02:53;;;;;;;63.67;36.42;;;;;;;-0.38;100.00;98471.72;5072123;28;20444;-87
2022/11/22 02:05:22;;;;;;;59.42;33.53;;;;;;;-0.44;100.00;98473.53;5072065;28;20020;-87
2022/11/22 02:08:23;;;;;;;65.18;35.67;;;;;;;-0.39;100.00;98481.97;5054069;28;20016;-87
2022/11/22 02:10:52;;;;;;;52.15;30.02;;;;;;;-0.47;100.00;98477.00;4973908;28;20037;-87
2022/11/22 02:13:19;;;;;;;55.75;33.03;;;;;;;-0.51;100.00;98460.03;4990267;28;20581;-87
2022/11/22 02:15:44;;;;;;;56.10;34.80;;;;;;;-0.57;100.00;98452.50;4990172;28;20069;-87
2022/11/22 02:18:09;;;;;;;56.20;33.72;;;;;;;-0.49;100.00;98454.91;4990005;28;20022;-86
2022/11/22 02:20:37;;;;;;;53.20;32.65;;;;;;;-0.56;100.00;98447.34;4990215;28;20438;-86
2022/11/22 02:23:12;;;;;;;52.28;32.45;;;;;;;-0.55;100.00;98448.19;4989866;28;20029;-87
2022/11/22 02:25:40;;;;;;;66.25;38.30;;;;;;;-0.51;100.00;98447.25;4990205;28;20022;-87
2022/11/22 02:28:11;;;;;;;52.58;33.03;;;;;;;-0.58;100.00;98443.16;4989823;28;20137;-86
2022/11/22 02:30:38;;;;;;;57.35;35.15;;;;;;;-0.57;100.00;98448.22;4973755;28;20026;-87
2022/11/22 02:33:04;;;;;;;59.42;35.00;;;;;;;-0.60;100.00;98452.56;4989731;28;20121;-87
2022/11/22 02:35:30;;;;;;;54.63;32.60;;;;;;;-0.63;100.00;98450.91;5011279;28;20037;-87
2022/11/22 02:37:58;;;;;;;49.42;30.67;;;;;;;-0.61;100.00;98451.72;5012509;28;20056;-87
2022/11/22 02:40:25;;;;;;;52.88;31.30;;;;;;;-0.63;100.00;98440.69;5029276;28;20420;-87
2022/11/22 02:43:14;;;;;;;50.30;31.27;;;;;;;-0.64;100.00;98430.47;5029292;28;20041;-87
2022/11/22 02:45:39;;;;;;;57.67;32.70;;;;;;;-0.67;100.00;98417.78;5012940;28;20026;-86
2022/11/22 02:48:11;;;;;;;60.03;35.65;;;;;;;-0.76;100.00;98409.44;5079347;28;20028;-86
2022/11/22 02:50:36;;;;;;;63.60;35.47;;;;;;;-0.70;100.00;98415.28;5092069;28;20109;-86
2022/11/22 02:53:03;;;;;;;62.60;38.00;;;;;;;-0.96;100.00;98395.38;5090196;28;20494;-86
2022/11/22 02:55:28;;;;;;;66.93;35.78;;;;;;;-0.79;100.00;98416.31;5090591;28;20161;-87
2022/11/22 02:57:54;;;;;;;66.25;37.17;;;;;;;-0.81;100.00;98418.88;5091664;28;20114;-87
2022/11/22 03:00:19;;;;;;;64.75;34.90;;;;;;;-0.82;100.00;98422.31;5091840;28;20363;-87
2022/11/22 03:02:44;;;;;;;57.90;32.67;;;;;;;-0.86;100.00;98419.84;5091768;28;20396;-87
2022/11/22 03:05:10;;;;;;;58.42;32.80;;;;;;;-0.84;100.00;98423.25;5091486;28;20035;-87
2022/11/22 03:07:35;;;;;;;62.65;34.50;;;;;;;-0.88;100.00;98414.78;5090204;28;20020;-87
2022/11/22 03:10:01;;;;;;;61.58;33.75;;;;;;;-0.87;100.00;98413.06;5091535;28;20258;-87
2022/11/22 03:12:26;;;;;;;69.38;36.88;;;;;;;-0.87;100.00;98421.59;5091656;28;20024;-87
2022/11/22 03:14:51;;;;;;;67.25;39.47;;;;;;;-0.87;100.00;98421.59;5091540;28;20055;-87
2022/11/22 03:17:16;;;;;;;75.95;41.50;;;;;;;-0.94;100.00;98411.50;5090038;28;20016;-87
2022/11/22 03:19:42;;;;;;;65.50;36.15;;;;;;;-1.01;100.00;98418.47;5090099;28;20028;-84
2022/11/22 03:22:07;;;;;;;67.68;38.40;;;;;;;-0.97;100.00;98427.72;5089901;28;20019;-84
2022/11/22 03:24:33;;;;;;;71.43;39.08;;;;;;;-1.13;100.00;98404.22;5091456;28;20039;-84
2022/11/22 03:26:58;;;;;;;74.68;34.28;;;;;;;-1.04;100.00;98411.69;5090092;28;20024;-84
2022/11/22 03:29:23;;;;;;;67.88;34.47;;;;;;;-1.15;100.00;98402.53;5090131;28;20383;-84
2022/11/22 03:31:49;;;;;;;59.88;32.28;;;;;;;-1.22;100.00;98394.19;5090154;28;20016;-84
2022/11/22 03:34:14;;;;;;;55.17;30.42;;;;;;;-1.16;100.00;98411.09;5089225;28;20459;-84
2022/11/22 03:36:40;;;;;;;64.15;35.05;;;;;;;-1.22;100.00;98406.94;5073732;28;20130;-84
2022/11/22 03:39:05;;;;;;;56.83;30.75;;;;;;;-1.17;100.00;98410.25;5056736;28;20060;-84
2022/11/22 03:41:30;;;;;;;73.35;35.97;;;;;;;-1.16;100.00;98414.47;5056918;28;20062;-84
2022/11/22 03:43:56;;;;;;;60.97;32.92;;;;;;;-1.17;100.00;98417.09;5057012;28;20467;-84
2022/11/22 03:46:21;;;;;;;73.93;35.72;;;;;;;-1.14;100.00;98417.84;5056518;28;20400;-84
2022/11/22 03:48:46;;;;;;;71.97;36.65;;;;;;;-1.17;100.00;98417.91;5056556;28;20462;-84
2022/11/22 03:51:12;;;;;;;68.93;31.33;;;;;;;-1.16;100.00;98414.47;5056372;28;20386;-84
2022/11/22 03:53:38;;;;;;;59.42;30.77;;;;;;;-1.18;100.00;98416.25;5074717;28;20036;-84
2022/11/22 03:56:04;;;;;;;60.17;33.03;;;;;;;-1.24;100.00;98410.41;5074301;28;20111;-84
2022/11/22 03:58:29;;;;;;;59.72;29.95;;;;;;;-1.16;100.00;98422.16;5056439;28;20074;-84
2022/11/22 04:00:55;;;;;;;70.13;30.90;;;;;;;-1.15;100.00;98418.72;5074742;28;20020;-84
2022/11/22 04:03:21;;;;;;;63.05;29.92;;;;;;;-1.23;100.00;98401.84;5056203;28;20071;-85
2022/11/22 04:05:46;;;;;;;57.75;29.90;;;;;;;-1.13;100.00;98414.44;5056233;28;20017;-84
2022/11/22 04:08:12;;;;;;;53.05;28.23;;;;;;;-1.13;100.00;98406.78;5073945;28;20035;-84
2022/11/22 04:10:37;;;;;;;78.45;32.75;;;;;;;-1.04;100.00;98415.97;5074236;28;20035;-84
2022/11/22 04:13:03;;;;;;;72.60;31.52;;;;;;;-1.08;100.00;98422.84;5073941;28;20111;-85
2022/11/22 04:15:28;;;;;;;69.97;32.05;;;;;;;-1.09;100.00;98422.88;5056255;28;20074;-84
2022/11/22 04:17:53;;;;;;;63.45;31.80;;;;;;;-1.09;100.00;98418.63;5056078;28;20056;-85
2022/11/22 04:23:10;;;;;;;83.38;36.35;;;;;;;-1.13;100.00;98411.03;5073987;28;20495;-86
2022/11/22 04:25:37;;;;;;;87.40;35.80;;;;;;;-1.13;100.00;98399.09;5056031;28;20028;-84
2022/11/22 04:28:03;;;;;;;71.03;34.53;;;;;;;-1.11;100.00;98388.84;5073617;28;20376;-84
2022/11/22 04:33:14;;;;;;;83.28;36.58;;;;;;;-1.07;100.00;98400.69;5073642;28;20106;-85
2022/11/22 04:35:40;;;;;;;97.35;37.90;;;;;;;-1.09;100.00;98398.16;5077213;28;20471;-85
2022/11/22 04:38:06;;;;;;;81.82;36.08;;;;;;;-1.10;100.00;98396.47;5093730;28;20102;-85
2022/11/22 04:40:32;;;;;;;84.78;36.67;;;;;;;-1.13;100.00;98390.59;5093894;28;20169;-85
2022/11/22 04:45:42;;;;;;;79.80;38.63;;;;;;;-1.05;100.00;98396.41;5094045;28;20698;-84
2022/11/22 04:48:09;;;;;;;78.80;38.25;;;;;;;-0.99;100.00;98386.03;5091376;28;20027;-85
2022/11/22 04:53:18;;;;;;;70.40;34.42;;;;;;;-1.07;100.00;98393.84;5093677;28;20077;-84
2022/11/22 04:55:45;;;;;;;105.20;36.10;;;;;;;-1.17;100.00;98379.59;5093624;28;20476;-84
2022/11/22 04:58:12;;;;;;;71.47;32.40;;;;;;;-1.08;100.00;98404.13;5093365;28;20028;-85
2022/11/22 05:00:37;;;;;;;80.72;35.83;;;;;;;-1.10;100.00;98404.13;5092341;28;20443;-85
2022/11/22 05:03:04;;;;;;;95.32;36.55;;;;;;;-1.12;100.00;98400.78;5093192;28;20034;-84
2022/11/22 05:05:30;;;;;;;142.73;45.75;;;;;;;-1.19;100.00;98396.66;5093218;28;20520;-84
2022/11/22 05:07:57;;;;;;;92.00;42.20;;;;;;;-1.23;100.00;98387.38;5093322;28;20093;-84
2022/11/22 05:10:23;;;;;;;91.82;39.28;;;;;;;-1.10;100.00;98398.19;5091745;28;20029;-85
2022/11/22 05:12:48;;;;;;;80.15;37.95;;;;;;;-1.13;100.00;98396.53;5093440;28;20020;-84
2022/11/22 05:15:13;;;;;;;80.57;38.60;;;;;;;-1.15;100.00;98382.09;5093211;28;20034;-84
2022/11/22 05:17:38;;;;;;;83.93;43.53;;;;;;;-1.09;100.00;98387.13;5093145;28;20026;-85
2022/11/22 05:20:06;;;;;;;92.78;40.58;;;;;;;-1.19;100.00;98365.16;5093012;28;20024;-85
2022/11/22 05:25:16;;;;;;;65.63;33.58;;;;;;;-1.00;100.00;98397.16;5092868;28;20383;-84
2022/11/22 05:27:41;;;;;;;67.80;34.00;;;;;;;-1.02;100.00;98391.22;5092971;28;20036;-85
2022/11/22 05:30:07;;;;;;;75.18;35.88;;;;;;;-0.94;100.00;98408.94;5092826;28;20020;-85
2022/11/22 05:32:32;;;;;;;82.85;36.20;;;;;;;-0.92;100.00;98422.56;5092822;28;20030;-85
2022/11/22 05:34:58;;;;;;;83.00;39.05;;;;;;;-0.88;100.00;98429.28;5086148;28;20059;-85
2022/11/22 05:37:24;;;;;;;83.10;38.83;;;;;;;-0.91;100.00;98412.28;5072537;28;20040;-85
2022/11/22 05:39:49;;;;;;;79.55;35.50;;;;;;;-0.92;100.00;98415.72;5072398;28;20032;-85
2022/11/22 05:42:15;;;;;;;78.00;34.70;;;;;;;-0.85;100.00;98424.94;5072409;28;20029;-85
2022/11/22 05:44:40;;;;;;;76.43;36.80;;;;;;;-0.86;100.00;98413.03;5072516;28;20091;-85
2022/11/22 05:47:05;;;;;;;100.90;37.03;;;;;;;-0.85;100.00;98414.72;5072180;28;20020;-85
2022/11/22 05:49:31;;;;;;;89.50;37.60;;;;;;;-0.88;100.00;98413.94;5054458;28;20050;-85
2022/11/22 05:51:57;;;;;;;96.30;37.78;;;;;;;-0.86;100.00;98423.25;5054324;28;20406;-85
2022/11/22 05:54:22;;;;;;;68.32;33.97;;;;;;;-0.85;100.00;98421.53;5049387;28;20047;-85
2022/11/22 05:56:48;;;;;;;81.40;38.17;;;;;;;-0.82;100.00;98432.53;5050135;28;20036;-85
2022/11/22 05:59:13;;;;;;;76.53;34.95;;;;;;;-0.84;100.00;98418.13;5049249;28;20071;-85
2022/11/22 06:01:39;;;;;;;82.55;38.60;;;;;;;-0.75;100.00;98430.72;5033018;28;20025;-85
2022/11/22 06:04:04;;;;;;;91.25;40.90;;;;;;;-0.71;100.00;98436.63;5049705;28;20037;-85
2022/11/22 06:06:30;;;;;;;85.70;34.35;;;;;;;-0.72;100.00;98434.91;5049460;28;20504;-85
2022/11/22 06:08:57;;;;;;;77.22;35.53;;;;;;;-0.69;100.00;98437.41;5049606;28;20032;-85
2022/11/22 06:11:25;;;;;;;81.75;39.65;;;;;;;-0.68;100.00;98441.63;5049420;28;20021;-84
2022/11/22 06:13:53;;;;;;;101.57;39.10;;;;;;;-0.67;100.00;98428.84;5032815;28;20041;-85
2022/11/22 06:16:19;;;;;;;67.97;34.10;;;;;;;-0.67;100.00;98435.69;5032654;28;20017;-85
2022/11/22 06:18:44;;;;;;;149.27;84.28;;;;;;;-0.66;100.00;98440.75;5049368;28;20032;-85
2022/11/22 06:21:12;;;;;;;77.40;38.17;;;;;;;-0.70;100.00;98436.56;5032473;28;20082;-85
2022/11/22 06:23:37;;;;;;;86.57;48.63;;;;;;;-0.73;100.00;98441.75;5032992;28;20086;-85
2022/11/22 06:26:05;;;;;;;78.53;36.20;;;;;;;-0.93;100.00;98416.56;5049154;28;20454;-85
2022/11/22 06:28:32;;;;;;;69.70;33.45;;;;;;;-0.91;100.00;98437.00;5053502;28;20020;-85
2022/11/22 06:31:04;;;;;;;57.17;30.52;;;;;;;-0.95;100.00;98445.59;5053741;28;20051;-85
2022/11/22 06:33:30;;;;;;;63.22;31.73;;;;;;;-1.05;100.00;98430.47;5071551;28;20021;-84
2022/11/22 06:36:07;;;;;;;60.40;31.45;;;;;;;-0.99;100.00;98441.44;5079450;28;20051;-85
2022/11/22 06:38:33;;;;;;;66.20;31.10;;;;;;;-0.94;100.00;98425.13;5092016;28;20082;-85
2022/11/22 06:41:05;;;;;;;70.95;33.40;;;;;;;-1.00;100.00;98409.94;5090618;28;20071;-84
2022/11/22 06:43:31;;;;;;;70.82;31.58;;;;;;;-0.98;100.00;98413.28;5090433;28;20348;-86
2022/11/22 06:45:58;;;;;;;61.20;30.63;;;;;;;-0.88;100.00;98440.34;5090556;28;20353;-86
2022/11/22 06:48:34;;;;;;;103.15;34.90;;;;;;;-0.84;100.00;98446.25;5091803;28;20447;-85
2022/11/22 06:51:02;;;;;;;73.45;31.98;;;;;;;-0.76;100.00;98454.56;5090774;28;20059;-85
2022/11/22 06:53:31;;;;;;;91.38;35.35;;;;;;;-0.77;100.00;98447.78;5090356;28;20017;-85
2022/11/22 06:56:07;;;;;;;69.70;32.80;;;;;;;-0.63;100.00;98462.84;5090477;28;20031;-85
2022/11/22 06:58:32;;;;;;;57.60;29.33;;;;;;;-0.71;100.00;98436.63;5090121;28;20020;-85
2022/11/22 07:01:01;;;;;;;65.70;32.63;;;;;;;-0.62;100.00;98450.03;5091649;28;20362;-84
2022/11/22 07:03:27;;;;;;;79.07;32.83;;;;;;;-0.62;100.00;98459.44;5091648;28;20024;-85
2022/11/22 07:05:53;;;;;;;77.35;33.20;;;;;;;-0.65;100.00;98459.47;5091887;28;20360;-85
2022/11/22 07:08:18;;;;;;;64.80;30.58;;;;;;;-0.55;100.00;98474.63;5090213;28;20463;-85
2022/11/22 07:10:44;;;;;;;82.60;32.60;;;;;;;-0.52;100.00;98476.25;5091724;28;20028;-85
2022/11/22 07:13:09;;;;;;;81.82;34.42;;;;;;;-0.50;100.00;98469.41;5095573;28;20020;-85
2022/11/22 07:15:34;;;;;;;69.15;33.08;;;;;;;-0.41;100.00;98471.78;5094175;28;20055;-85
2022/11/22 07:17:59;;;;;;;73.38;33.30;;;;;;;-0.51;100.00;98460.91;5095900;28;20024;-85
2022/11/22 07:20:25;;;;;;;80.70;34.95;;;;;;;-0.49;100.00;98473.66;5094185;28;20035;-85
2022/11/22 07:22:50;;;;;;;90.05;43.08;;;;;;;-0.50;100.00;98466.84;5094212;28;20016;-85
2022/11/22 07:25:15;;;;;;;147.02;80.82;;;;;;;-0.48;100.00;98457.41;5095091;28;20055;-85
2022/11/22 07:27:41;;;;;;;133.23;78.18;;;;;;;-0.42;100.00;98457.31;5095295;28;20023;-85
2022/11/22 07:30:07;;;;;;;89.72;49.90;;;;;;;-0.42;100.00;98456.44;5095114;28;20028;-85
2022/11/22 07:32:33;;;;;;;69.35;34.65;;;;;;;-0.39;100.00;98457.22;5093808;28;20356;-85
2022/11/22 07:34:58;;;;;;;95.18;50.30;;;;;;;-0.44;100.00;98446.25;5088452;28;20074;-85
2022/11/22 07:37:24;;;;;;;63.53;32.20;;;;;;;-0.48;100.00;98436.13;5056717;28;20021;-85
2022/11/22 07:39:49;;;;;;;73.28;41.47;;;;;;;-0.35;100.00;98451.16;5074884;28;20024;-85
2022/11/22 07:42:14;;;;;;;70.35;42.55;;;;;;;-0.37;100.00;98436.72;5074564;28;20048;-85
2022/11/22 07:44:40;;;;;;;111.18;63.63;;;;;;;-0.28;100.00;98454.44;5056716;28;20024;-85
2022/11/22 07:47:05;;;;;;;63.95;31.90;;;;;;;-0.29;100.00;98451.03;5056906;28;20052;-85
2022/11/22 07:49:30;;;;;;;57.45;28.92;;;;;;;-0.22;100.00;98456.00;5056506;28;20020;-84
2022/11/22 07:51:58;;;;;;;59.70;33.53;;;;;;;-0.21;100.00;98460.25;5056670;28;20028;-84
2022/11/22 07:54:24;;;;;;;54.85;31.92;;;;;;;-0.21;100.00;98445.75;5074395;28;20077;-85
2022/11/22 07:56:49;;;;;;;83.50;36.10;;;;;;;-0.20;100.00;98449.16;5074786;28;20024;-84
2022/11/22 07:59:14;;;;;;;62.67;33.97;;;;;;;-0.18;100.00;98453.34;5074090;28;20024;-85
2022/11/22 08:01:40;;;;;;;59.67;30.83;;;;;;;-0.14;100.00;98446.44;5074528;28;20341;-86
2022/11/22 08:04:05;;;;;;;59.53;31.08;;;;;;;-0.13;100.00;98440.44;5056424;28;20122;-86
2022/11/22 08:06:30;;;;;;;58.55;30.88;;;;;;;-0.11;100.00;98429.31;5056107;28;20021;-86
2022/11/22 08:08:56;;;;;;;60.15;28.70;;;;;;;-0.05;100.00;98438.53;5074190;28;20054;-86
2022/11/22 08:11:21;;;;;;;70.57;30.75;;;;;;;-0.06;100.00;98445.38;5073962;28;20048;-86
2022/11/22 08:13:46;;;;;;;73.90;33.20;;;;;;;-0.06;100.00;98435.16;5056157;28;20028;-86
2022/11/22 08:16:14;;;;;;;60.85;30.48;;;;;;;-0.03;100.00;98426.56;5056215;28;20013;-85
2022/11/22 08:18:45;;;;;;;61.63;31.40;;;;;;;-0.05;100.00;98425.75;5074139;28;20065;-86
2022/11/22 08:21:13;;;;;;;;;;;;;;;0.02;100.00;98434.13;5074351;28;20024;-86
2022/11/22 08:23:40;;;;;;;57.70;31.23;;;;;;;-0.06;100.00;98422.34;5055827;28;19951;-86
2022/11/22 08:26:07;;;;;;;64.30;30.27;;;;;;;0.04;100.00;98432.38;5055894;28;20035;-86
2022/11/22 08:28:33;;;;;;;78.82;44.45;;;;;;;-0.09;100.00;98398.53;5055639;28;20024;-86
2022/11/22 08:31:03;;;;;;;84.20;40.00;;;;;;;0.07;100.00;98416.94;5073763;28;20032;-86
2022/11/22 08:33:28;;;;;;;73.07;34.05;;;;;;;0.09;100.00;98416.03;5051006;28;20404;-86
2022/11/22 08:35:54;;;;;;;78.97;35.50;;;;;;;0.08;100.00;98414.34;5051120;28;20048;-86
2022/11/22 08:38:19;;;;;;;95.85;45.28;;;;;;;0.02;100.00;98409.38;5051180;28;20028;-86
2022/11/22 08:40:44;;;;;;;201.82;70.47;;;;;;;0.09;100.00;98428.84;5051313;28;20419;-86
2022/11/22 08:43:10;;;;;;;90.18;39.17;;;;;;;0.11;100.00;98427.06;5051174;28;20119;-86
2022/11/22 08:45:35;;;;;;;126.07;45.45;;;;;;;0.12;100.00;98427.91;5050859;28;20029;-86
2022/11/22 08:48:00;;;;;;;106.28;50.30;;;;;;;0.16;100.00;98429.53;5051006;28;20086;-86
2022/11/22 08:50:26;;;;;;;77.45;35.55;;;;;;;0.17;100.00;98428.63;5050798;28;20029;-86
2022/11/22 08:52:53;;;;;;;102.10;50.72;;;;;;;0.17;100.00;98431.19;5034229;28;20029;-86
2022/11/22 08:55:18;;;;;;;76.13;37.75;;;;;;;0.18;100.00;98433.72;5050715;28;20025;-85
2022/11/22 08:57:44;;;;;;;90.18;39.72;;;;;;;0.15;100.00;98431.25;5033964;28;20060;-86
2022/11/22 09:00:10;;;;;;;76.88;37.03;;;;;;;0.13;100.00;98435.56;5034068;28;20032;-86
2022/11/22 09:02:35;;;;;;;106.70;46.85;;;;;;;0.13;100.00;98427.06;5050658;28;20537;-85
2022/11/22 09:05:01;;;;;;;102.70;39.92;;;;;;;0.12;100.00;98430.47;5067200;28;20124;-85
2022/11/22 09:07:28;;;;;;;105.50;48.20;;;;;;;0.12;100.00;98441.53;5055111;28;20388;-86
2022/11/22 09:09:53;;;;;;;81.05;41.22;;;;;;;0.06;100.00;98418.66;5055098;28;20021;-85
2022/11/22 09:12:19;;;;;;;103.32;43.65;;;;;;;0.13;100.00;98432.19;5054709;28;20029;-85
2022/11/22 09:14:44;;;;;;;87.93;41.13;;;;;;;0.20;100.00;98442.22;5073145;28;20067;-85
2022/11/22 09:17:09;;;;;;;86.45;44.22;;;;;;;0.20;100.00;98439.66;5055493;28;20020;-85
2022/11/22 09:19:35;;;;;;;83.38;40.42;;;;;;;0.24;100.00;98446.38;5054725;28;20286;-85
2022/11/22 09:22:00;;;;;;;94.13;42.65;;;;;;;0.22;100.00;98440.47;5054882;28;20021;-85
2022/11/22 09:24:25;;;;;;;88.45;43.47;;;;;;;0.21;100.00;98433.66;5054572;28;20111;-83
2022/11/22 09:26:51;;;;;;;77.38;37.33;;;;;;;0.20;100.00;98431.97;5054737;28;20052;-83
2022/11/22 09:29:16;;;;;;;93.20;45.75;;;;;;;0.27;100.00;98447.19;5054905;28;20020;-83
2022/11/22 09:31:41;;;;;;;84.40;40.17;;;;;;;0.32;100.00;98448.75;5072443;28;20021;-83
2022/11/22 09:34:07;;;;;;;102.28;52.80;;;;;;;0.41;100.00;98447.69;5072023;28;20078;-83
2022/11/22 09:36:32;;;;;;;77.97;40.30;;;;;;;0.44;100.00;98438.22;5090435;28;20044;-84
2022/11/22 09:38:58;;;;;;;121.70;49.45;;;;;;;0.55;100.00;98439.63;5092681;28;20363;-84
2022/11/22 09:41:35;;;;;;;88.47;45.03;;;;;;;0.68;100.00;98447.00;5091041;28;20023;-84
2022/11/22 09:44:22;;;;;;;83.10;39.75;;;;;;;0.64;100.00;98439.44;5091626;28;20020;-84
2022/11/22 09:46:55;;;;;;;86.03;42.90;;;;;;;0.54;100.00;98415.75;5091704;28;20028;-84
2022/11/22 09:49:56;;;;;;;85.07;41.03;;;;;;;0.64;100.00;98439.44;5092436;28;20020;-84
2022/11/22 09:52:48;;;;;;;86.75;45.42;;;;;;;0.52;100.00;98414.13;4993557;28;20041;-84
2022/11/22 09:55:44;;;;;;;83.78;39.25;;;;;;;0.63;100.00;98424.91;5010246;28;20037;-85
2022/11/22 09:58:34;;;;;;;72.22;38.63;;;;;;;0.57;100.00;98430.22;5010101;28;20034;-84
2022/11/22 10:01:17;;;;;;;92.13;42.38;;;;;;;0.57;100.00;98427.66;5010213;28;20030;-84
2022/11/22 10:03:59;;;;;;;103.32;57.05;;;;;;;0.50;100.00;98416.72;5009892;28;20025;-84
2022/11/22 10:06:34;;;;;;;90.72;41.20;;;;;;;0.59;100.00;98425.88;5009832;28;20043;-84
2022/11/22 10:09:00;;;;;;;95.10;43.67;;;;;;;0.62;100.00;98424.06;4993522;28;20059;-84
2022/11/22 10:11:44;;;;;;;110.70;53.28;;;;;;;0.56;100.00;98406.31;5009725;28;20207;-83
2022/11/22 10:14:28;;;;;;;93.88;45.22;;;;;;;0.63;100.00;98410.41;5009945;28;20026;-83
2022/11/22 10:17:23;;;;;;;95.25;44.15;;;;;;;0.75;100.00;98425.44;4954666;28;20138;-84
2022/11/22 10:20:15;;;;;;;104.38;47.50;;;;;;;0.74;100.00;98428.03;4970639;28;20035;-84
2022/11/22 10:22:40;;;;;;;83.38;42.05;;;;;;;0.76;100.00;98408.34;4970485;28;20127;-83
2022/11/22 10:25:15;;;;;;;116.20;48.92;;;;;;;0.78;100.00;98421.97;4954580;28;20027;-84
2022/11/22 10:27:41;;;;;;;112.93;52.78;;;;;;;0.80;100.00;98421.91;5007608;28;20044;-84
2022/11/22 10:30:19;;;;;;;89.95;42.63;;;;;;;0.84;100.00;98423.50;5069390;28;20119;-84
2022/11/22 10:33:11;;;;;;;99.95;50.72;;;;;;;0.88;100.00;98418.25;5052296;28;20119;-84
2022/11/22 10:35:56;;;;;;;124.95;63.03;;;;;;;0.92;100.00;98427.53;5051864;28;20079;-84
2022/11/22 10:38:52;;;;;;;111.50;57.55;;;;;;;0.85;100.00;98402.16;5069285;28;20364;-84
2022/11/22 10:41:32;;;;;;;89.35;43.75;;;;;;;0.94;100.00;98424.94;5069373;28;20087;-84
2022/11/22 10:44:12;;;;;;;98.45;47.25;;;;;;;0.95;100.00;98427.47;5069188;28;20025;-84
2022/11/22 10:47:08;;;;;;;118.63;58.85;;;;;;;0.93;100.00;98424.13;5072291;28;20103;-84
2022/11/22 10:49:44;;;;;;;110.65;53.70;;;;;;;0.83;100.00;98414.97;5056214;28;20021;-84
2022/11/22 10:52:22;;;;;;;95.63;45.38;;;;;;;0.78;100.00;98406.59;5056355;28;20028;-85
2022/11/22 10:55:02;;;;;;;100.28;47.88;;;;;;;0.80;100.00;98407.41;5081289;28;20066;-84
2022/11/22 10:57:30;;;;;;;108.63;52.47;;;;;;;0.81;100.00;98427.00;5095872;28;20028;-84
2022/11/22 11:00:21;;;;;;;103.93;53.08;;;;;;;0.80;100.00;98415.09;5094646;28;20486;-84
2022/11/22 11:03:09;;;;;;;103.70;50.67;;;;;;;0.73;100.00;98408.44;5095593;28;20027;-84
2022/11/22 11:05:45;;;;;;;99.82;45.75;;;;;;;0.68;100.00;98398.31;5094375;28;20028;-84
2022/11/22 11:08:16;;;;;;;106.32;51.65;;;;;;;0.75;100.00;98406.66;5094500;28;20055;-84
2022/11/22 11:10:44;;;;;;;104.07;50.35;;;;;;;0.75;100.00;98414.34;5095328;28;20020;-84
2022/11/22 11:13:28;;;;;;;111.15;52.65;;;;;;;0.72;100.00;98406.75;5094205;28;20020;-84
2022/11/22 11:15:56;;;;;;;109.95;51.75;;;;;;;0.70;100.00;98403.38;5095457;28;20031;-84
2022/11/22 11:18:45;;;;;;;107.05;50.35;;;;;;;0.79;100.00;98417.66;5094176;28;20099;-84
2022/11/22 11:21:13;;;;;;;104.07;50.20;;;;;;;0.77;100.00;98420.28;5094098;28;20024;-84
2022/11/22 11:23:40;;;;;;;112.18;58.40;;;;;;;0.72;100.00;98415.28;5095288;28;20081;-84
2022/11/22 11:26:25;;;;;;;120.10;58.05;;;;;;;0.82;100.00;98420.16;5095537;28;20020;-84
2022/11/22 11:29:16;;;;;;;117.07;58.20;;;;;;;0.83;100.00;98420.09;5095259;28;20056;-84
2022/11/22 11:31:42;;;;;;;;;;;;;;;0.87;100.00;98421.72;5095335;28;20409;-84